Brooks, Maine
Current Conditions -  °F | °C
As of 10:53 AM on Friday 28 Nov 2014 (Local Time) from KBGR Reporting Station
Broken Clouds Broken Clouds  
Wind Chill: 14°   Ceiling: 20000
Heat Index: 23°   Visibility: 10mi
Dew Point: 13°   Wind: 8mph
Humidity: 65%   Direction: 350°N
Pressure: 30.03"   Gusts: NA
Location:  44.55°N, 69.12°W
Report Text: KBGR 281553Z 35007KT 10SM FEW070 SCT100 BKN200 M05/M11 A3003 RMK AO2 SLP175 T10501106
Loading
Personal Weather Stations






























Interactive Weather Map New forecast layout! Learn more

10-Day Weather Forecast

Advertisements
Track Severe Weather on mobile